createdAt,value
2023-02-02T00:00:04.118Z,559.04
2023-02-02T00:00:16.129Z,558.73
2023-02-02T00:00:28.139Z,558.60
2023-02-02T00:00:39.095Z,558.49
2023-02-02T00:00:50.153Z,558.32
2023-02-02T00:01:01.121Z,558.62
2023-02-02T00:01:13.124Z,559.15
2023-02-02T00:01:25.135Z,559.24
2023-02-02T00:01:37.138Z,559.16
2023-02-02T00:01:49.137Z,559.29
2023-02-02T00:02:01.136Z,559.18
2023-02-02T00:02:12.093Z,558.86
2023-02-02T00:02:23.104Z,558.80
2023-02-02T00:02:34.151Z,558.85
2023-02-02T00:02:45.179Z,558.98
2023-02-02T00:02:57.188Z,558.77
2023-02-02T00:03:09.188Z,559.01
2023-02-02T00:03:20.097Z,558.90
2023-02-02T00:03:32.104Z,558.83
2023-02-02T00:03:43.261Z,558.85
2023-02-02T00:03:55.119Z,558.91
2023-02-02T00:04:06.140Z,558.80
2023-02-02T00:04:17.126Z,558.79
2023-02-02T00:04:29.195Z,558.92
2023-02-02T00:04:41.115Z,558.83
2023-02-02T00:04:53.108Z,558.71
2023-02-02T00:05:04.087Z,558.74
2023-02-02T00:05:15.141Z,558.78
2023-02-02T00:05:27.164Z,558.83
2023-02-02T00:05:39.126Z,558.93
2023-02-02T00:05:50.105Z,559.07
2023-02-02T00:06:01.089Z,558.90
2023-02-02T00:06:12.157Z,558.81
2023-02-02T00:06:24.165Z,558.95
2023-02-02T00:06:36.174Z,558.75
2023-02-02T00:06:48.084Z,558.71
2023-02-02T00:06:59.123Z,558.77
2023-02-02T00:07:11.134Z,558.89
2023-02-02T00:07:23.150Z,558.91
2023-02-02T00:07:35.169Z,558.72
2023-02-02T00:07:47.078Z,558.78
2023-02-02T00:07:58.124Z,558.64
2023-02-02T00:08:10.137Z,558.52
2023-02-02T00:08:22.141Z,558.58
2023-02-02T00:08:33.103Z,558.47
2023-02-02T00:08:44.106Z,558.07
2023-02-02T00:08:55.156Z,558.36
2023-02-02T00:09:07.072Z,558.51
2023-02-02T00:09:18.129Z,558.33
2023-02-02T00:09:30.145Z,558.44
2023-02-02T00:09:41.091Z,558.56
2023-02-02T00:09:52.125Z,558.59
2023-02-02T00:10:03.089Z,558.72
2023-02-02T00:10:14.140Z,558.47
2023-02-02T00:10:26.159Z,558.56
2023-02-02T00:10:37.111Z,558.62
2023-02-02T00:10:48.082Z,558.52
2023-02-02T00:10:59.115Z,558.53
2023-02-02T00:11:11.127Z,558.23
2023-02-02T00:11:22.090Z,558.26
2023-02-02T00:11:34.091Z,558.14
2023-02-02T00:11:45.093Z,558.48
2023-02-02T00:11:56.129Z,558.50
2023-02-02T00:12:07.093Z,558.13
2023-02-02T00:12:19.109Z,558.56
2023-02-02T00:12:30.168Z,558.49
2023-02-02T00:12:42.080Z,558.34
2023-02-02T00:12:53.131Z,558.90
2023-02-02T00:13:05.138Z,558.87
2023-02-02T00:13:17.148Z,558.61
2023-02-02T00:13:29.153Z,558.61
2023-02-02T00:13:40.123Z,558.69
2023-02-02T00:13:52.140Z,558.30
2023-02-02T00:14:04.134Z,558.10
2023-02-02T00:14:16.134Z,558.21
2023-02-02T00:14:28.166Z,558.21
2023-02-02T00:14:40.177Z,558.16
2023-02-02T00:14:52.077Z,557.73
2023-02-02T00:15:04.090Z,557.71
2023-02-02T00:15:15.155Z,557.96
2023-02-02T00:15:27.172Z,557.96
2023-02-02T00:15:38.119Z,557.95
2023-02-02T00:15:49.312Z,558.37
2023-02-02T00:16:00.158Z,558.59
2023-02-02T00:16:12.157Z,558.22
2023-02-02T00:16:23.168Z,558.18
2023-02-02T00:16:35.143Z,557.96
2023-02-02T00:16:46.116Z,557.68
2023-02-02T00:16:57.093Z,557.69
2023-02-02T00:17:08.126Z,557.92
2023-02-02T00:17:20.146Z,558.18
2023-02-02T00:17:32.146Z,558.39
2023-02-02T00:17:44.144Z,557.97
2023-02-02T00:17:56.167Z,557.98
2023-02-02T00:18:08.079Z,558.22
2023-02-02T00:18:19.119Z,558.28
2023-02-02T00:18:30.082Z,558.50
2023-02-02T00:18:41.138Z,558.42
2023-02-02T00:18:53.136Z,558.16
2023-02-02T00:19:04.107Z,558.07
2023-02-02T00:19:16.129Z,557.85
2023-02-02T00:19:27.096Z,557.93
2023-02-02T00:19:38.180Z,557.80
2023-02-02T00:19:50.093Z,557.89
2023-02-02T00:20:01.153Z,558.01
2023-02-02T00:20:13.103Z,558.07
2023-02-02T00:20:24.174Z,557.87
2023-02-02T00:20:35.131Z,557.80
2023-02-02T00:20:46.082Z,557.93
2023-02-02T00:20:58.093Z,558.03
2023-02-02T00:21:10.098Z,558.09
2023-02-02T00:21:21.097Z,558.02
2023-02-02T00:21:33.112Z,558.08
2023-02-02T00:21:44.179Z,558.14
2023-02-02T00:21:55.129Z,558.29
2023-02-02T00:22:06.100Z,558.04
2023-02-02T00:22:17.155Z,557.62
2023-02-02T00:22:29.159Z,557.66
2023-02-02T00:22:41.159Z,558.14
2023-02-02T00:22:53.165Z,558.01
2023-02-02T00:23:05.077Z,558.16
2023-02-02T00:23:16.139Z,557.93
2023-02-02T00:23:28.139Z,558.06
2023-02-02T00:23:40.144Z,557.94
2023-02-02T00:23:52.145Z,558.11
2023-02-02T00:24:04.152Z,558.37
2023-02-02T00:24:16.154Z,558.30
2023-02-02T00:24:28.160Z,558.03
2023-02-02T00:24:40.119Z,557.86
2023-02-02T00:24:51.078Z,557.74
2023-02-02T00:25:02.125Z,557.92
2023-02-02T00:25:14.138Z,558.10
2023-02-02T00:25:26.240Z,557.83
2023-02-02T00:25:38.098Z,557.75
2023-02-02T00:25:49.100Z,558.05
2023-02-02T00:26:00.115Z,558.22
2023-02-02T00:26:11.097Z,558.03
2023-02-02T00:26:22.200Z,557.66
2023-02-02T00:26:34.176Z,557.49
2023-02-02T00:26:46.149Z,557.40
2023-02-02T00:26:57.137Z,557.69
2023-02-02T00:27:08.106Z,557.72
2023-02-02T00:27:19.171Z,557.83
2023-02-02T00:27:31.079Z,557.88
2023-02-02T00:27:42.130Z,557.97
2023-02-02T00:27:53.103Z,557.92
2023-02-02T00:28:04.077Z,557.80
2023-02-02T00:28:16.098Z,557.55
2023-02-02T00:28:28.114Z,557.39
2023-02-02T00:28:39.076Z,557.37
2023-02-02T00:28:50.141Z,557.21
2023-02-02T00:29:02.160Z,557.48
2023-02-02T00:29:13.125Z,557.65
2023-02-02T00:29:25.147Z,557.69
2023-02-02T00:29:37.148Z,557.63
2023-02-02T00:29:48.099Z,557.69
2023-02-02T00:29:59.164Z,557.39
2023-02-02T00:30:11.102Z,557.58
2023-02-02T00:30:22.162Z,558.24
2023-02-02T00:30:34.097Z,557.65
2023-02-02T00:30:45.179Z,557.44
2023-02-02T00:30:57.213Z,557.50
2023-02-02T00:31:09.247Z,557.37
2023-02-02T00:31:20.123Z,557.60
2023-02-02T00:31:31.239Z,557.66
2023-02-02T00:31:43.211Z,557.79
2023-02-02T00:31:55.147Z,557.62
2023-02-02T00:32:07.159Z,557.63
2023-02-02T00:32:19.178Z,557.67
2023-02-02T00:32:30.125Z,557.59
2023-02-02T00:32:42.135Z,557.53
2023-02-02T00:32:54.133Z,557.60
2023-02-02T00:33:06.163Z,557.52
2023-02-02T00:33:18.161Z,557.38
2023-02-02T00:33:30.195Z,557.39
2023-02-02T00:33:42.091Z,557.45
2023-02-02T00:33:54.096Z,557.43
2023-02-02T00:34:06.110Z,557.62
2023-02-02T00:34:18.116Z,557.58
2023-02-02T00:34:30.132Z,557.44
2023-02-02T00:34:42.139Z,557.25
2023-02-02T00:34:54.147Z,557.33
2023-02-02T00:35:06.151Z,557.44
2023-02-02T00:35:18.164Z,557.33
2023-02-02T00:35:30.075Z,557.06
2023-02-02T00:35:41.124Z,557.20
2023-02-02T00:35:52.082Z,557.38
2023-02-02T00:36:03.133Z,557.26
2023-02-02T00:36:15.144Z,557.14
2023-02-02T00:36:27.155Z,556.64
2023-02-02T00:36:39.158Z,556.77
2023-02-02T00:36:51.129Z,557.05
2023-02-02T00:37:02.176Z,557.01
2023-02-02T00:37:14.084Z,557.03
2023-02-02T00:37:25.137Z,556.94
2023-02-02T00:37:37.145Z,556.98
2023-02-02T00:37:49.158Z,556.80
2023-02-02T00:38:01.157Z,556.40
2023-02-02T00:38:12.122Z,556.71
2023-02-02T00:38:23.094Z,556.89
2023-02-02T00:38:35.119Z,556.78
2023-02-02T00:38:46.073Z,557.00
2023-02-02T00:38:57.171Z,557.32
2023-02-02T00:39:08.113Z,557.17
2023-02-02T00:39:20.115Z,557.13
2023-02-02T00:39:32.127Z,557.04
2023-02-02T00:39:43.106Z,557.12
2023-02-02T00:39:55.097Z,557.05
2023-02-02T00:40:06.096Z,556.87
2023-02-02T00:40:17.168Z,556.65
2023-02-02T00:40:29.186Z,556.87
2023-02-02T00:40:41.102Z,557.13
2023-02-02T00:40:52.157Z,557.42
2023-02-02T00:41:04.159Z,557.23
2023-02-02T00:41:15.122Z,556.65
2023-02-02T00:41:27.131Z,556.37
2023-02-02T00:41:39.150Z,556.69
2023-02-02T00:41:51.161Z,556.77
2023-02-02T00:42:03.165Z,556.83
2023-02-02T00:42:15.177Z,557.02
2023-02-02T00:42:27.105Z,556.83
2023-02-02T00:42:38.082Z,556.97
2023-02-02T00:42:49.130Z,556.87
2023-02-02T00:43:01.147Z,556.72
2023-02-02T00:43:13.163Z,556.74
2023-02-02T00:43:24.116Z,556.85
2023-02-02T00:43:36.118Z,556.97
2023-02-02T00:43:48.125Z,556.77
2023-02-02T00:43:59.098Z,556.74
2023-02-02T00:44:10.167Z,556.64
2023-02-02T00:44:22.082Z,556.43
2023-02-02T00:44:33.131Z,556.46
2023-02-02T00:44:46.120Z,556.18
2023-02-02T00:44:56.100Z,555.97
2023-02-02T00:45:07.100Z,555.97
2023-02-02T00:45:18.097Z,556.26
2023-02-02T00:45:29.227Z,556.25
2023-02-02T00:45:41.152Z,556.21
2023-02-02T00:45:52.247Z,556.53
2023-02-02T00:46:03.115Z,556.78
2023-02-02T00:46:14.101Z,556.79
2023-02-02T00:46:25.101Z,556.37
2023-02-02T00:46:36.101Z,556.19
2023-02-02T00:46:47.093Z,556.21
2023-02-02T00:46:58.143Z,556.11
2023-02-02T00:47:10.152Z,556.53
2023-02-02T00:47:22.155Z,556.67
2023-02-02T00:47:34.154Z,556.75
2023-02-02T00:47:45.115Z,556.41
2023-02-02T00:47:57.128Z,556.43
2023-02-02T00:48:09.144Z,556.47
2023-02-02T00:48:21.158Z,556.44
2023-02-02T00:48:33.171Z,556.26
2023-02-02T00:48:45.077Z,556.27
2023-02-02T00:48:56.138Z,556.38
2023-02-02T00:49:08.148Z,556.26
2023-02-02T00:49:20.159Z,556.32
2023-02-02T00:49:32.079Z,556.26
2023-02-02T00:49:43.130Z,556.48
2023-02-02T00:49:55.141Z,556.55
2023-02-02T00:50:07.149Z,556.39
2023-02-02T00:50:18.098Z,556.62
2023-02-02T00:50:29.166Z,556.74
2023-02-02T00:50:41.170Z,556.72
2023-02-02T00:50:53.168Z,556.52
2023-02-02T00:51:05.081Z,556.71
2023-02-02T00:51:16.112Z,557.20
2023-02-02T00:51:28.130Z,557.00
2023-02-02T00:51:40.133Z,556.54
2023-02-02T00:51:52.137Z,556.55
2023-02-02T00:52:03.104Z,556.39
2023-02-02T00:52:15.117Z,556.28
2023-02-02T00:52:27.127Z,556.16
2023-02-02T00:52:39.139Z,556.09
2023-02-02T00:52:51.157Z,556.27
2023-02-02T00:53:03.164Z,556.34
2023-02-02T00:53:15.197Z,556.40
2023-02-02T00:53:27.099Z,556.68
2023-02-02T00:53:38.097Z,556.72
2023-02-02T00:53:50.116Z,556.44
2023-02-02T00:54:02.120Z,556.31
2023-02-02T00:54:13.082Z,556.46
2023-02-02T00:54:25.093Z,556.36
2023-02-02T00:54:36.081Z,556.46
2023-02-02T00:54:47.144Z,556.34
2023-02-02T00:54:58.125Z,556.36
2023-02-02T00:55:09.080Z,556.45
2023-02-02T00:55:20.132Z,556.52
2023-02-02T00:55:31.095Z,556.47
2023-02-02T00:55:42.185Z,556.35
2023-02-02T00:55:54.093Z,556.19
2023-02-02T00:56:06.114Z,556.32
2023-02-02T00:56:17.081Z,556.21
2023-02-02T00:56:28.122Z,556.15
2023-02-02T00:56:40.134Z,556.43
2023-02-02T00:56:52.136Z,556.21
2023-02-02T00:57:03.105Z,556.40
2023-02-02T00:57:14.121Z,556.38
2023-02-02T00:57:25.093Z,556.18
2023-02-02T00:57:36.165Z,556.09
2023-02-02T00:57:48.078Z,556.22
2023-02-02T00:57:59.119Z,556.44
2023-02-02T00:58:10.077Z,556.46
2023-02-02T00:58:22.089Z,556.28
2023-02-02T00:58:34.102Z,556.28
2023-02-02T00:58:45.171Z,555.98
2023-02-02T00:58:57.085Z,555.66
2023-02-02T00:59:08.135Z,555.60
2023-02-02T00:59:20.141Z,555.94
2023-02-02T00:59:32.149Z,555.89
2023-02-02T00:59:43.127Z,555.65
2023-02-02T00:59:54.074Z,555.73
2023-02-02T01:00:05.112Z,555.97
2023-02-02T01:00:17.117Z,555.93
2023-02-02T01:00:29.123Z,556.02
2023-02-02T01:00:41.163Z,556.07
2023-02-02T01:00:52.195Z,555.84
2023-02-02T01:01:03.095Z,555.54
2023-02-02T01:01:14.159Z,555.70
2023-02-02T01:01:25.187Z,556.36
2023-02-02T01:01:37.122Z,556.37
2023-02-02T01:01:48.159Z,556.18
2023-02-02T01:01:59.161Z,556.18
2023-02-02T01:02:10.250Z,556.48
2023-02-02T01:02:21.128Z,556.46
2023-02-02T01:02:32.149Z,556.18
2023-02-02T01:02:43.106Z,556.05
2023-02-02T01:02:54.089Z,556.10
2023-02-02T01:03:05.122Z,556.26
2023-02-02T01:03:17.131Z,556.23
2023-02-02T01:03:29.132Z,556.22
2023-02-02T01:03:41.144Z,555.92
2023-02-02T01:03:53.160Z,555.39
2023-02-02T01:04:04.121Z,555.23
2023-02-02T01:04:15.080Z,555.34
2023-02-02T01:04:26.121Z,555.54
2023-02-02T01:04:37.123Z,555.80
2023-02-02T01:04:49.138Z,556.01
2023-02-02T01:05:00.114Z,555.59
2023-02-02T01:05:11.177Z,555.30
2023-02-02T01:05:22.341Z,555.59
2023-02-02T01:05:34.124Z,555.83
2023-02-02T01:05:45.115Z,555.63
2023-02-02T01:05:57.135Z,555.45
2023-02-02T01:06:08.076Z,555.49
2023-02-02T01:06:19.137Z,555.60
2023-02-02T01:06:30.099Z,555.77
2023-02-02T01:06:42.120Z,555.86
2023-02-02T01:06:54.098Z,555.72
2023-02-02T01:07:05.169Z,555.88
2023-02-02T01:07:16.132Z,556.12
2023-02-02T01:07:28.138Z,555.72
2023-02-02T01:07:40.143Z,555.68
2023-02-02T01:07:51.100Z,555.48
2023-02-02T01:08:02.104Z,555.64
2023-02-02T01:08:13.083Z,555.77
2023-02-02T01:08:24.143Z,555.66
2023-02-02T01:08:36.156Z,555.40
2023-02-02T01:08:48.164Z,555.26
2023-02-02T01:09:00.192Z,555.47
2023-02-02T01:09:12.108Z,555.32
2023-02-02T01:09:24.129Z,555.28
2023-02-02T01:09:35.080Z,555.61
2023-02-02T01:09:46.127Z,555.51
2023-02-02T01:09:58.146Z,555.56
2023-02-02T01:10:09.096Z,555.37
2023-02-02T01:10:20.159Z,555.42
2023-02-02T01:10:31.119Z,555.53
2023-02-02T01:10:43.117Z,555.58
2023-02-02T01:10:55.132Z,555.13
2023-02-02T01:11:07.164Z,555.12
2023-02-02T01:11:18.117Z,555.09
2023-02-02T01:11:30.134Z,555.36
2023-02-02T01:11:41.098Z,555.48
2023-02-02T01:11:52.076Z,555.33
2023-02-02T01:12:03.144Z,555.29
2023-02-02T01:12:14.096Z,555.28
2023-02-02T01:12:26.110Z,555.12
2023-02-02T01:12:37.075Z,554.93
2023-02-02T01:12:48.141Z,554.78
2023-02-02T01:13:00.173Z,554.86
2023-02-02T01:13:11.116Z,555.34
2023-02-02T01:13:23.126Z,555.58
2023-02-02T01:13:35.132Z,555.86
2023-02-02T01:13:47.129Z,555.53
2023-02-02T01:13:59.136Z,555.40
2023-02-02T01:14:11.145Z,555.24
2023-02-02T01:14:23.157Z,554.98
2023-02-02T01:14:35.156Z,555.09
2023-02-02T01:14:47.157Z,554.87
2023-02-02T01:14:59.155Z,555.00
2023-02-02T01:15:11.060Z,555.00
2023-02-02T01:15:22.294Z,555.08
2023-02-02T01:15:34.125Z,554.94
2023-02-02T01:15:46.134Z,554.91
2023-02-02T01:15:58.134Z,555.10
2023-02-02T01:16:10.146Z,555.09
2023-02-02T01:16:21.141Z,555.18
2023-02-02T01:16:32.164Z,555.30
2023-02-02T01:16:43.136Z,555.46
2023-02-02T01:16:54.117Z,555.42
2023-02-02T01:17:05.077Z,554.78
2023-02-02T01:17:16.128Z,554.58
2023-02-02T01:17:28.140Z,554.62
2023-02-02T01:17:40.145Z,554.83
2023-02-02T01:17:52.140Z,555.25
2023-02-02T01:18:04.147Z,555.13
2023-02-02T01:18:16.146Z,554.72
2023-02-02T01:18:28.160Z,554.14
2023-02-02T01:18:39.119Z,554.69
2023-02-02T01:18:51.118Z,555.69
2023-02-02T01:19:02.077Z,555.04
2023-02-02T01:19:13.117Z,555.00
2023-02-02T01:19:25.132Z,555.04
2023-02-02T01:19:37.145Z,554.98
2023-02-02T01:19:49.155Z,554.94
2023-02-02T01:20:01.092Z,554.59
2023-02-02T01:20:12.164Z,554.62
2023-02-02T01:20:24.162Z,554.72
2023-02-02T01:20:36.082Z,554.82
2023-02-02T01:20:47.139Z,554.71
2023-02-02T01:20:59.145Z,554.64
2023-02-02T01:21:11.164Z,554.76
2023-02-02T01:21:23.164Z,554.69
2023-02-02T01:21:35.103Z,554.84
2023-02-02T01:21:46.156Z,554.99
2023-02-02T01:21:58.165Z,554.83
2023-02-02T01:22:09.133Z,555.08
2023-02-02T01:22:20.095Z,555.01
2023-02-02T01:22:32.115Z,555.04
2023-02-02T01:22:44.116Z,554.56
2023-02-02T01:22:55.079Z,554.34
2023-02-02T01:23:06.114Z,554.87
2023-02-02T01:23:18.127Z,555.26
2023-02-02T01:23:30.145Z,555.06
2023-02-02T01:23:42.139Z,554.69
2023-02-02T01:23:53.101Z,554.89
2023-02-02T01:24:04.092Z,554.86
2023-02-02T01:24:16.098Z,554.91
2023-02-02T01:24:27.100Z,554.93
2023-02-02T01:24:38.093Z,554.79
2023-02-02T01:24:49.140Z,554.90
2023-02-02T01:25:01.139Z,554.64
2023-02-02T01:25:13.157Z,554.18
2023-02-02T01:25:25.466Z,554.47
2023-02-02T01:25:37.135Z,554.87
2023-02-02T01:25:49.159Z,554.89
2023-02-02T01:26:01.163Z,554.63
2023-02-02T01:26:12.149Z,554.60
2023-02-02T01:26:23.105Z,554.45
2023-02-02T01:26:34.172Z,554.16
2023-02-02T01:26:46.103Z,554.27
2023-02-02T01:26:57.088Z,554.02
2023-02-02T01:27:08.113Z,554.28
2023-02-02T01:27:20.116Z,554.43
2023-02-02T01:27:32.123Z,554.39
2023-02-02T01:27:44.116Z,554.47
2023-02-02T01:27:55.083Z,554.38
2023-02-02T01:28:06.160Z,554.47
2023-02-02T01:28:17.119Z,554.57
2023-02-02T01:28:29.133Z,554.45
2023-02-02T01:28:41.150Z,554.82
2023-02-02T01:28:52.094Z,554.62
2023-02-02T01:29:03.157Z,554.41
2023-02-02T01:29:15.098Z,554.61
2023-02-02T01:29:26.099Z,554.36
2023-02-02T01:29:37.100Z,554.14
2023-02-02T01:29:49.116Z,554.39
2023-02-02T01:30:00.104Z,554.67
2023-02-02T01:30:11.077Z,554.79
2023-02-02T01:30:22.133Z,554.88
2023-02-02T01:30:34.141Z,554.95
2023-02-02T01:30:45.146Z,554.87
2023-02-02T01:30:57.159Z,554.82
2023-02-02T01:31:08.112Z,554.71
2023-02-02T01:31:19.161Z,554.57
2023-02-02T01:31:30.204Z,554.43
2023-02-02T01:31:42.197Z,554.47
2023-02-02T01:31:54.191Z,554.41
2023-02-02T01:32:06.149Z,554.52
2023-02-02T01:32:18.121Z,554.40
2023-02-02T01:32:29.078Z,554.78
2023-02-02T01:32:40.138Z,554.92
2023-02-02T01:32:52.137Z,554.89
2023-02-02T01:33:03.098Z,554.64
2023-02-02T01:33:14.085Z,554.75
2023-02-02T01:33:25.118Z,554.61
2023-02-02T01:33:37.116Z,554.35
2023-02-02T01:33:49.121Z,554.31
2023-02-02T01:34:01.124Z,554.44
2023-02-02T01:34:13.127Z,554.39
2023-02-02T01:34:24.097Z,554.35
2023-02-02T01:34:35.077Z,554.39
2023-02-02T01:34:46.125Z,554.50
2023-02-02T01:34:58.126Z,554.34
2023-02-02T01:35:10.143Z,554.38
2023-02-02T01:35:21.166Z,554.19
2023-02-02T01:35:33.109Z,554.56
2023-02-02T01:35:45.111Z,554.54
2023-02-02T01:35:57.131Z,554.55
2023-02-02T01:36:08.102Z,554.36
2023-02-02T01:36:19.072Z,553.85
2023-02-02T01:36:30.142Z,554.49
2023-02-02T01:36:42.168Z,554.57
2023-02-02T01:36:53.126Z,554.43
2023-02-02T01:37:05.121Z,554.67
2023-02-02T01:37:17.140Z,554.85
2023-02-02T01:37:29.160Z,554.86
2023-02-02T01:37:41.161Z,554.63
2023-02-02T01:37:53.158Z,554.51
2023-02-02T01:38:04.129Z,554.44
2023-02-02T01:38:15.079Z,554.26
2023-02-02T01:38:26.125Z,554.10
2023-02-02T01:38:37.093Z,553.83
2023-02-02T01:38:48.076Z,553.99
2023-02-02T01:38:59.123Z,553.90
2023-02-02T01:39:11.129Z,554.28
2023-02-02T01:39:23.129Z,553.74
2023-02-02T01:39:35.141Z,553.76
2023-02-02T01:39:47.154Z,553.77
2023-02-02T01:39:59.110Z,554.15
2023-02-02T01:40:10.077Z,554.26
2023-02-02T01:40:21.126Z,554.30
2023-02-02T01:40:32.097Z,554.16
2023-02-02T01:40:43.095Z,554.10
2023-02-02T01:40:55.112Z,553.93
2023-02-02T01:41:06.087Z,553.71
2023-02-02T01:41:18.100Z,553.34
2023-02-02T01:41:30.096Z,553.48
2023-02-02T01:41:41.162Z,553.95
2023-02-02T01:41:53.158Z,554.11
2023-02-02T01:42:05.163Z,553.82
2023-02-02T01:42:16.129Z,553.83
2023-02-02T01:42:28.132Z,553.73
2023-02-02T01:42:40.135Z,553.69
2023-02-02T01:42:51.099Z,553.75
2023-02-02T01:43:03.114Z,553.52
2023-02-02T01:43:15.125Z,553.53
2023-02-02T01:43:26.080Z,553.51
2023-02-02T01:43:37.115Z,553.40
2023-02-02T01:43:49.121Z,553.46
2023-02-02T01:44:01.126Z,553.82
2023-02-02T01:44:12.077Z,553.79
2023-02-02T01:44:23.128Z,553.49
2023-02-02T01:44:34.091Z,553.44
2023-02-02T01:44:45.074Z,553.32
2023-02-02T01:44:56.121Z,553.33
2023-02-02T01:45:07.100Z,553.69
2023-02-02T01:45:18.158Z,554.00
2023-02-02T01:45:29.129Z,554.41
2023-02-02T01:45:40.127Z,554.01
2023-02-02T01:45:51.117Z,553.63
2023-02-02T01:46:02.142Z,553.39
2023-02-02T01:46:13.150Z,553.51
2023-02-02T01:46:25.126Z,553.33
2023-02-02T01:46:37.139Z,552.95
2023-02-02T01:46:49.147Z,553.13
2023-02-02T01:47:01.155Z,553.69
2023-02-02T01:47:13.166Z,553.68
2023-02-02T01:47:25.076Z,553.00
2023-02-02T01:47:36.124Z,552.73
2023-02-02T01:47:47.077Z,553.45
2023-02-02T01:47:58.125Z,553.68
2023-02-02T01:48:10.151Z,553.55
2023-02-02T01:48:22.157Z,553.64
2023-02-02T01:48:34.170Z,553.55
2023-02-02T01:48:46.184Z,553.42
2023-02-02T01:48:58.080Z,553.27
2023-02-02T01:49:09.127Z,553.54
2023-02-02T01:49:21.151Z,553.54
2023-02-02T01:49:32.116Z,553.52
2023-02-02T01:49:43.088Z,553.23
2023-02-02T01:49:55.107Z,553.36
2023-02-02T01:50:06.162Z,553.16
2023-02-02T01:50:18.075Z,553.22
2023-02-02T01:50:29.114Z,553.15
2023-02-02T01:50:40.171Z,553.11
2023-02-02T01:50:52.085Z,553.04
2023-02-02T01:51:04.105Z,552.77
2023-02-02T01:51:15.081Z,552.84
2023-02-02T01:51:26.132Z,553.29
2023-02-02T01:51:38.142Z,553.11
2023-02-02T01:51:49.114Z,552.82
2023-02-02T01:52:00.107Z,552.79
2023-02-02T01:52:11.151Z,553.29
2023-02-02T01:52:22.127Z,552.99
2023-02-02T01:52:33.088Z,552.38
2023-02-02T01:52:45.096Z,552.67
2023-02-02T01:52:56.151Z,552.91
2023-02-02T01:53:08.160Z,553.12
2023-02-02T01:53:20.169Z,553.33
2023-02-02T01:53:32.079Z,552.78
2023-02-02T01:53:44.099Z,553.23
2023-02-02T01:53:56.120Z,553.18
2023-02-02T01:54:07.087Z,553.29
2023-02-02T01:54:18.141Z,552.97
2023-02-02T01:54:30.140Z,553.40
2023-02-02T01:54:42.154Z,553.36
2023-02-02T01:54:54.158Z,553.18
2023-02-02T01:55:05.129Z,552.91
2023-02-02T01:55:17.156Z,552.36
2023-02-02T01:55:28.107Z,552.51
2023-02-02T01:55:39.077Z,552.63
2023-02-02T01:55:50.119Z,552.80
2023-02-02T01:56:02.120Z,552.92
2023-02-02T01:56:13.085Z,553.03
2023-02-02T01:56:24.131Z,552.88
2023-02-02T01:56:36.145Z,552.46
2023-02-02T01:56:48.159Z,552.37
2023-02-02T01:56:59.115Z,552.62
2023-02-02T01:57:11.126Z,552.45
2023-02-02T01:57:23.132Z,552.60
2023-02-02T01:57:35.144Z,552.41
2023-02-02T01:57:47.170Z,552.21
2023-02-02T01:57:58.128Z,552.17
2023-02-02T01:58:09.095Z,552.21
2023-02-02T01:58:21.107Z,552.32
2023-02-02T01:58:33.113Z,552.43
2023-02-02T01:58:45.123Z,552.38
2023-02-02T01:58:57.151Z,552.28
2023-02-02T01:59:08.092Z,552.32
2023-02-02T01:59:20.118Z,552.17
2023-02-02T01:59:31.073Z,551.90
2023-02-02T01:59:42.115Z,552.24
2023-02-02T01:59:54.115Z,552.26
2023-02-02T02:00:06.116Z,552.50
2023-02-02T02:00:17.091Z,552.31
2023-02-02T02:00:28.138Z,552.18
2023-02-02T02:00:40.103Z,552.41
2023-02-02T02:00:51.096Z,552.35
2023-02-02T02:01:03.135Z,552.18
2023-02-02T02:01:14.147Z,552.04
2023-02-02T02:01:25.156Z,552.10
2023-02-02T02:01:37.121Z,552.56
2023-02-02T02:01:48.179Z,552.73
2023-02-02T02:02:00.191Z,552.53
2023-02-02T02:02:11.110Z,552.30
2023-02-02T02:02:22.219Z,552.12
2023-02-02T02:02:34.202Z,552.06
2023-02-02T02:02:46.228Z,551.87
2023-02-02T02:02:57.108Z,551.92
2023-02-02T02:03:08.174Z,552.09
2023-02-02T02:03:20.102Z,552.15
2023-02-02T02:03:31.095Z,552.08
2023-02-02T02:03:43.111Z,552.04
2023-02-02T02:03:54.173Z,551.93
2023-02-02T02:04:06.081Z,551.70
2023-02-02T02:04:18.105Z,551.78
2023-02-02T02:04:29.091Z,551.99
2023-02-02T02:04:40.141Z,552.04
2023-02-02T02:04:51.087Z,552.42
2023-02-02T02:05:03.120Z,553.15
2023-02-02T02:05:14.074Z,553.14
2023-02-02T02:05:25.386Z,552.77
2023-02-02T02:05:37.131Z,552.67
2023-02-02T02:05:49.206Z,552.46
2023-02-02T02:06:01.166Z,552.04
2023-02-02T02:06:12.181Z,552.21
2023-02-02T02:06:24.155Z,552.27
2023-02-02T02:06:35.122Z,552.59
2023-02-02T02:06:47.122Z,552.58
2023-02-02T02:06:59.124Z,552.40
2023-02-02T02:07:11.139Z,552.26
2023-02-02T02:07:23.137Z,552.21
2023-02-02T02:07:35.132Z,552.03
2023-02-02T02:07:47.132Z,552.09
2023-02-02T02:07:59.134Z,551.68
2023-02-02T02:08:11.135Z,551.80
2023-02-02T02:08:22.096Z,552.48
2023-02-02T02:08:33.174Z,552.47
2023-02-02T02:08:45.076Z,552.67
2023-02-02T02:08:56.158Z,552.58
2023-02-02T02:09:07.126Z,552.19
2023-02-02T02:09:19.139Z,551.19
2023-02-02T02:09:31.144Z,551.14
2023-02-02T02:09:43.152Z,551.09
2023-02-02T02:09:54.119Z,551.10
2023-02-02T02:10:06.118Z,551.34
2023-02-02T02:10:18.139Z,551.37
2023-02-02T02:10:29.105Z,551.35
2023-02-02T02:10:40.085Z,551.61
2023-02-02T02:10:51.134Z,551.81
2023-02-02T02:11:03.140Z,551.55
2023-02-02T02:11:15.153Z,551.37
2023-02-02T02:11:27.154Z,551.64
2023-02-02T02:11:38.118Z,551.71
2023-02-02T02:11:49.096Z,551.83
2023-02-02T02:12:00.156Z,551.76
2023-02-02T02:12:12.092Z,551.62
2023-02-02T02:12:23.159Z,551.40
2023-02-02T02:12:35.161Z,551.40
2023-02-02T02:12:46.122Z,551.55
2023-02-02T02:12:58.139Z,551.73
2023-02-02T02:13:09.111Z,551.72
2023-02-02T02:13:20.163Z,551.61
2023-02-02T02:13:32.166Z,551.75
2023-02-02T02:13:44.096Z,551.96
2023-02-02T02:13:55.160Z,551.84
2023-02-02T02:14:07.167Z,551.67
2023-02-02T02:14:19.085Z,551.70
2023-02-02T02:14:30.173Z,551.74
2023-02-02T02:14:41.117Z,551.73
2023-02-02T02:14:52.093Z,551.63
2023-02-02T02:15:03.155Z,551.36
2023-02-02T02:15:15.166Z,551.05
2023-02-02T02:15:27.173Z,551.56
2023-02-02T02:15:39.057Z,551.62
2023-02-02T02:15:50.129Z,551.53
2023-02-02T02:16:02.129Z,551.61
2023-02-02T02:16:14.147Z,551.47
2023-02-02T02:16:26.198Z,551.64
2023-02-02T02:16:38.192Z,552.08
2023-02-02T02:16:50.140Z,552.05
2023-02-02T02:17:01.092Z,551.85
2023-02-02T02:17:12.149Z,551.67
2023-02-02T02:17:23.120Z,551.12
2023-02-02T02:17:34.098Z,551.30
2023-02-02T02:17:45.189Z,551.46
2023-02-02T02:17:57.098Z,551.39
2023-02-02T02:18:08.073Z,551.32
2023-02-02T02:18:19.121Z,551.32
2023-02-02T02:18:31.123Z,551.63
2023-02-02T02:18:43.136Z,551.70
2023-02-02T02:18:54.095Z,551.43
2023-02-02T02:19:05.083Z,551.26
2023-02-02T02:19:17.094Z,551.12
2023-02-02T02:19:28.175Z,551.35
2023-02-02T02:19:40.073Z,551.50
2023-02-02T02:19:51.140Z,551.02
2023-02-02T02:20:03.144Z,551.15
2023-02-02T02:20:15.149Z,550.91
2023-02-02T02:20:27.159Z,550.37
2023-02-02T02:20:38.135Z,550.77
2023-02-02T02:20:49.076Z,550.84
2023-02-02T02:21:00.134Z,551.24
2023-02-02T02:21:12.148Z,551.12
2023-02-02T02:21:24.159Z,551.09
2023-02-02T02:21:36.103Z,551.22
2023-02-02T02:21:48.108Z,551.44
2023-02-02T02:22:00.115Z,551.06
2023-02-02T02:22:12.121Z,550.69
2023-02-02T02:22:24.128Z,550.80
2023-02-02T02:22:36.129Z,550.82
2023-02-02T02:22:48.146Z,550.66
2023-02-02T02:23:00.164Z,550.76
2023-02-02T02:23:11.121Z,550.57
2023-02-02T02:23:22.076Z,550.36
2023-02-02T02:23:33.128Z,550.44
2023-02-02T02:23:45.135Z,550.44